sensor_id;sensor_type;location;lat;lon;timestamp;temperature;humidity
32502;DHT22;18952;52.516;13.460;2023-12-14T00:01:37;4.30;99.90
32502;DHT22;18952;52.516;13.460;2023-12-14T00:04:04;4.30;99.90
32502;DHT22;18952;52.516;13.460;2023-12-14T00:06:31;4.30;99.90
32502;DHT22;18952;52.516;13.460;2023-12-14T00:08:58;4.20;99.90
32502;DHT22;18952;52.516;13.460;2023-12-14T00:11:25;4.20;99.90
32502;DHT22;18952;52.516;13.460;2023-12-14T00:13:52;4.20;99.90
32502;DHT22;18952;52.516;13.460;2023-12-14T00:16:19;4.20;99.90
32502;DHT22;18952;52.516;13.460;2023-12-14T00:18:46;4.20;99.90
32502;DHT22;18952;52.516;13.460;2023-12-14T00:21:13;4.20;99.90
32502;DHT22;18952;52.516;13.460;2023-12-14T00:23:39;4.20;99.90
32502;DHT22;18952;52.516;13.460;2023-12-14T00:26:06;4.20;99.90
32502;DHT22;18952;52.516;13.460;2023-12-14T00:28:33;4.10;99.90
32502;DHT22;18952;52.516;13.460;2023-12-14T00:31:00;4.10;99.90
32502;DHT22;18952;52.516;13.460;2023-12-14T00:33:27;4.10;99.90
32502;DHT22;18952;52.516;13.460;2023-12-14T00:35:54;4.00;99.90
32502;DHT22;18952;52.516;13.460;2023-12-14T00:38:21;4.00;99.90
32502;DHT22;18952;52.516;13.460;2023-12-14T00:40:47;4.00;99.90
32502;DHT22;18952;52.516;13.460;2023-12-14T00:43:14;4.00;99.90
32502;DHT22;18952;52.516;13.460;2023-12-14T00:45:41;4.00;99.90
32502;DHT22;18952;52.516;13.460;2023-12-14T00:48:10;4.00;99.90
32502;DHT22;18952;52.516;13.460;2023-12-14T00:50:37;4.00;99.90
32502;DHT22;18952;52.516;13.460;2023-12-14T00:53:04;4.00;99.90
32502;DHT22;18952;52.516;13.460;2023-12-14T00:55:31;4.00;99.90
32502;DHT22;18952;52.516;13.460;2023-12-14T00:57:58;3.90;99.90
32502;DHT22;18952;52.516;13.460;2023-12-14T01:00:24;4.00;99.90
32502;DHT22;18952;52.516;13.460;2023-12-14T01:02:51;4.00;99.90
32502;DHT22;18952;52.516;13.460;2023-12-14T01:05:18;4.00;99.90
32502;DHT22;18952;52.516;13.460;2023-12-14T01:07:45;4.00;99.90
32502;DHT22;18952;52.516;13.460;2023-12-14T01:10:12;3.90;99.90
32502;DHT22;18952;52.516;13.460;2023-12-14T01:12:38;3.90;99.90
32502;DHT22;18952;52.516;13.460;2023-12-14T01:15:06;3.80;99.90
32502;DHT22;18952;52.516;13.460;2023-12-14T01:17:33;3.70;99.90
32502;DHT22;18952;52.516;13.460;2023-12-14T01:19:59;3.70;99.90
32502;DHT22;18952;52.516;13.460;2023-12-14T01:22:26;3.60;99.90
32502;DHT22;18952;52.516;13.460;2023-12-14T01:24:53;3.50;99.90
32502;DHT22;18952;52.516;13.460;2023-12-14T01:27:20;3.60;99.90
32502;DHT22;18952;52.516;13.460;2023-12-14T01:29:47;3.60;99.90
32502;DHT22;18952;52.516;13.460;2023-12-14T01:32:13;3.60;99.90
32502;DHT22;18952;52.516;13.460;2023-12-14T01:34:40;3.70;99.90
32502;DHT22;18952;52.516;13.460;2023-12-14T01:37:07;3.60;99.90
32502;DHT22;18952;52.516;13.460;2023-12-14T01:39:34;3.60;99.90
32502;DHT22;18952;52.516;13.460;2023-12-14T01:42:00;3.60;99.90
32502;DHT22;18952;52.516;13.460;2023-12-14T01:44:27;3.60;99.90
32502;DHT22;18952;52.516;13.460;2023-12-14T01:46:54;3.50;99.90
32502;DHT22;18952;52.516;13.460;2023-12-14T01:49:21;3.50;99.90
32502;DHT22;18952;52.516;13.460;2023-12-14T01:51:47;3.40;99.90
32502;DHT22;18952;52.516;13.460;2023-12-14T01:54:14;3.30;99.90
32502;DHT22;18952;52.516;13.460;2023-12-14T01:56:41;3.30;99.90
32502;DHT22;18952;52.516;13.460;2023-12-14T01:59:08;3.40;99.90
32502;DHT22;18952;52.516;13.460;2023-12-14T02:01:42;3.30;99.90
32502;DHT22;18952;52.516;13.460;2023-12-14T02:04:11;3.20;99.90
32502;DHT22;18952;52.516;13.460;2023-12-14T02:06:39;3.20;99.90
32502;DHT22;18952;52.516;13.460;2023-12-14T02:09:06;3.20;99.90
32502;DHT22;18952;52.516;13.460;2023-12-14T02:11:32;3.30;99.90
32502;DHT22;18952;52.516;13.460;2023-12-14T02:14:04;3.30;99.90
32502;DHT22;18952;52.516;13.460;2023-12-14T02:16:30;3.10;99.90
32502;DHT22;18952;52.516;13.460;2023-12-14T02:18:57;3.10;99.90
32502;DHT22;18952;52.516;13.460;2023-12-14T02:21:24;3.00;99.90
32502;DHT22;18952;52.516;13.460;2023-12-14T02:23:51;3.00;99.90
32502;DHT22;18952;52.516;13.460;2023-12-14T02:26:19;3.10;99.90
32502;DHT22;18952;52.516;13.460;2023-12-14T02:28:46;3.00;99.90
32502;DHT22;18952;52.516;13.460;2023-12-14T02:31:13;2.90;99.90
32502;DHT22;18952;52.516;13.460;2023-12-14T02:33:40;2.90;99.90
32502;DHT22;18952;52.516;13.460;2023-12-14T02:36:07;2.90;99.90
32502;DHT22;18952;52.516;13.460;2023-12-14T02:38:34;3.00;99.90
32502;DHT22;18952;52.516;13.460;2023-12-14T02:41:01;3.00;99.90
32502;DHT22;18952;52.516;13.460;2023-12-14T02:43:27;3.10;99.90
32502;DHT22;18952;52.516;13.460;2023-12-14T02:45:54;3.10;99.90
32502;DHT22;18952;52.516;13.460;2023-12-14T02:48:21;3.10;99.90
32502;DHT22;18952;52.516;13.460;2023-12-14T02:50:48;3.10;99.90
32502;DHT22;18952;52.516;13.460;2023-12-14T02:53:15;3.20;99.90
32502;DHT22;18952;52.516;13.460;2023-12-14T02:55:43;3.20;99.90
32502;DHT22;18952;52.516;13.460;2023-12-14T02:58:10;3.10;99.90
32502;DHT22;18952;52.516;13.460;2023-12-14T03:00:36;3.20;99.90
32502;DHT22;18952;52.516;13.460;2023-12-14T03:03:03;3.10;99.90
32502;DHT22;18952;52.516;13.460;2023-12-14T03:05:30;3.20;99.90
32502;DHT22;18952;52.516;13.460;2023-12-14T03:07:57;3.20;99.90
32502;DHT22;18952;52.516;13.460;2023-12-14T03:10:23;3.30;99.90
32502;DHT22;18952;52.516;13.460;2023-12-14T03:12:50;3.30;99.90
32502;DHT22;18952;52.516;13.460;2023-12-14T03:15:20;3.30;99.90
32502;DHT22;18952;52.516;13.460;2023-12-14T03:17:49;3.30;99.90
32502;DHT22;18952;52.516;13.460;2023-12-14T03:20:16;3.30;99.90
32502;DHT22;18952;52.516;13.460;2023-12-14T03:22:43;3.30;99.90
32502;DHT22;18952;52.516;13.460;2023-12-14T03:25:13;3.30;99.90
32502;DHT22;18952;52.516;13.460;2023-12-14T03:27:40;3.20;99.90
32502;DHT22;18952;52.516;13.460;2023-12-14T03:30:07;3.20;99.90
32502;DHT22;18952;52.516;13.460;2023-12-14T03:32:34;3.20;99.90
32502;DHT22;18952;52.516;13.460;2023-12-14T03:35:01;3.20;99.90
32502;DHT22;18952;52.516;13.460;2023-12-14T03:37:28;3.20;99.90
32502;DHT22;18952;52.516;13.460;2023-12-14T03:39:55;3.10;99.90
32502;DHT22;18952;52.516;13.460;2023-12-14T03:42:22;3.00;99.90
32502;DHT22;18952;52.516;13.460;2023-12-14T03:44:49;3.00;99.90
32502;DHT22;18952;52.516;13.460;2023-12-14T03:47:15;3.00;99.90
32502;DHT22;18952;52.516;13.460;2023-12-14T03:49:42;3.10;99.90
32502;DHT22;18952;52.516;13.460;2023-12-14T03:52:09;3.20;99.90
32502;DHT22;18952;52.516;13.460;2023-12-14T03:54:36;3.20;99.90
32502;DHT22;18952;52.516;13.460;2023-12-14T03:57:03;3.20;99.90
32502;DHT22;18952;52.516;13.460;2023-12-14T03:59:29;3.20;99.90
32502;DHT22;18952;52.516;13.460;2023-12-14T04:01:56;3.20;99.90
32502;DHT22;18952;52.516;13.460;2023-12-14T04:04:23;3.30;99.90
32502;DHT22;18952;52.516;13.460;2023-12-14T04:06:50;3.20;99.90
32502;DHT22;18952;52.516;13.460;2023-12-14T04:09:17;3.20;99.90
32502;DHT22;18952;52.516;13.460;2023-12-14T04:11:43;3.10;99.90
32502;DHT22;18952;52.516;13.460;2023-12-14T04:14:10;3.10;99.90
32502;DHT22;18952;52.516;13.460;2023-12-14T04:16:37;3.20;99.90
32502;DHT22;18952;52.516;13.460;2023-12-14T04:19:04;3.20;99.90
32502;DHT22;18952;52.516;13.460;2023-12-14T04:21:31;3.20;99.90
32502;DHT22;18952;52.516;13.460;2023-12-14T04:23:57;3.20;99.90
32502;DHT22;18952;52.516;13.460;2023-12-14T04:26:24;3.20;99.90
32502;DHT22;18952;52.516;13.460;2023-12-14T04:28:51;3.20;99.90
32502;DHT22;18952;52.516;13.460;2023-12-14T04:31:18;3.20;99.90
32502;DHT22;18952;52.516;13.460;2023-12-14T04:33:44;3.20;99.90
32502;DHT22;18952;52.516;13.460;2023-12-14T04:36:11;3.20;99.90
32502;DHT22;18952;52.516;13.460;2023-12-14T04:38:38;3.10;99.90
32502;DHT22;18952;52.516;13.460;2023-12-14T04:41:05;3.10;99.90
32502;DHT22;18952;52.516;13.460;2023-12-14T04:43:32;3.10;99.90
32502;DHT22;18952;52.516;13.460;2023-12-14T04:45:59;3.20;99.90
32502;DHT22;18952;52.516;13.460;2023-12-14T04:48:26;3.10;99.90
32502;DHT22;18952;52.516;13.460;2023-12-14T04:50:53;3.20;99.90
32502;DHT22;18952;52.516;13.460;2023-12-14T04:53:20;3.20;99.90
32502;DHT22;18952;52.516;13.460;2023-12-14T04:55:47;3.20;99.90
32502;DHT22;18952;52.516;13.460;2023-12-14T04:58:14;3.20;99.90
32502;DHT22;18952;52.516;13.460;2023-12-14T05:00:41;3.20;99.90
32502;DHT22;18952;52.516;13.460;2023-12-14T05:03:08;3.30;99.90
32502;DHT22;18952;52.516;13.460;2023-12-14T05:05:34;3.30;99.90
32502;DHT22;18952;52.516;13.460;2023-12-14T05:08:01;3.40;99.90
32502;DHT22;18952;52.516;13.460;2023-12-14T05:10:28;3.30;99.90
32502;DHT22;18952;52.516;13.460;2023-12-14T05:12:55;3.30;99.90
32502;DHT22;18952;52.516;13.460;2023-12-14T05:15:22;3.30;99.90
32502;DHT22;18952;52.516;13.460;2023-12-14T05:17:48;3.30;99.90
32502;DHT22;18952;52.516;13.460;2023-12-14T05:20:15;3.30;99.90
32502;DHT22;18952;52.516;13.460;2023-12-14T05:22:42;3.30;99.90
32502;DHT22;18952;52.516;13.460;2023-12-14T05:25:09;3.20;99.90
32502;DHT22;18952;52.516;13.460;2023-12-14T05:27:36;3.20;99.90
32502;DHT22;18952;52.516;13.460;2023-12-14T05:30:05;3.20;99.90
32502;DHT22;18952;52.516;13.460;2023-12-14T05:32:32;3.20;99.90
32502;DHT22;18952;52.516;13.460;2023-12-14T05:35:00;3.30;99.90
32502;DHT22;18952;52.516;13.460;2023-12-14T05:37:27;3.20;99.90
32502;DHT22;18952;52.516;13.460;2023-12-14T05:39:54;3.20;99.90
32502;DHT22;18952;52.516;13.460;2023-12-14T05:42:21;3.10;99.90
32502;DHT22;18952;52.516;13.460;2023-12-14T05:44:47;3.10;99.90
32502;DHT22;18952;52.516;13.460;2023-12-14T05:47:14;3.10;99.90
32502;DHT22;18952;52.516;13.460;2023-12-14T05:49:44;3.10;99.90
32502;DHT22;18952;52.516;13.460;2023-12-14T05:52:11;3.20;99.90
32502;DHT22;18952;52.516;13.460;2023-12-14T05:54:38;3.20;99.90
32502;DHT22;18952;52.516;13.460;2023-12-14T05:57:05;3.20;99.90
32502;DHT22;18952;52.516;13.460;2023-12-14T05:59:32;3.30;99.90
32502;DHT22;18952;52.516;13.460;2023-12-14T06:01:59;3.30;99.90
32502;DHT22;18952;52.516;13.460;2023-12-14T06:04:27;3.40;99.90
32502;DHT22;18952;52.516;13.460;2023-12-14T06:06:54;3.40;99.90
32502;DHT22;18952;52.516;13.460;2023-12-14T06:09:21;3.40;99.90
32502;DHT22;18952;52.516;13.460;2023-12-14T06:11:48;3.40;99.90
32502;DHT22;18952;52.516;13.460;2023-12-14T06:14:15;3.40;99.90
32502;DHT22;18952;52.516;13.460;2023-12-14T06:16:42;3.30;99.90
32502;DHT22;18952;52.516;13.460;2023-12-14T06:19:09;3.40;99.90
32502;DHT22;18952;52.516;13.460;2023-12-14T06:21:36;3.40;99.90
32502;DHT22;18952;52.516;13.460;2023-12-14T06:24:03;3.40;99.90
32502;DHT22;18952;52.516;13.460;2023-12-14T06:26:30;3.40;99.90
32502;DHT22;18952;52.516;13.460;2023-12-14T06:28:57;3.40;99.90
32502;DHT22;18952;52.516;13.460;2023-12-14T06:31:27;3.40;99.90
32502;DHT22;18952;52.516;13.460;2023-12-14T06:33:54;3.40;99.90
32502;DHT22;18952;52.516;13.460;2023-12-14T06:36:26;3.50;99.90
32502;DHT22;18952;52.516;13.460;2023-12-14T06:38:53;3.50;99.90
32502;DHT22;18952;52.516;13.460;2023-12-14T06:41:24;3.50;99.90
32502;DHT22;18952;52.516;13.460;2023-12-14T06:43:52;3.50;99.90
32502;DHT22;18952;52.516;13.460;2023-12-14T06:46:19;3.50;99.90
32502;DHT22;18952;52.516;13.460;2023-12-14T06:48:47;3.60;99.90
32502;DHT22;18952;52.516;13.460;2023-12-14T06:51:14;3.60;99.90
32502;DHT22;18952;52.516;13.460;2023-12-14T06:53:42;3.60;99.90
32502;DHT22;18952;52.516;13.460;2023-12-14T06:56:09;3.50;99.90
32502;DHT22;18952;52.516;13.460;2023-12-14T06:58:40;3.50;99.90
32502;DHT22;18952;52.516;13.460;2023-12-14T07:01:14;3.60;99.90
32502;DHT22;18952;52.516;13.460;2023-12-14T07:03:41;3.60;99.90
32502;DHT22;18952;52.516;13.460;2023-12-14T07:06:12;3.60;99.90
32502;DHT22;18952;52.516;13.460;2023-12-14T07:08:40;3.50;99.90
32502;DHT22;18952;52.516;13.460;2023-12-14T07:11:08;3.50;99.90
32502;DHT22;18952;52.516;13.460;2023-12-14T07:13:35;3.50;99.90
32502;DHT22;18952;52.516;13.460;2023-12-14T07:16:06;3.50;99.90
32502;DHT22;18952;52.516;13.460;2023-12-14T07:18:42;3.50;99.90
32502;DHT22;18952;52.516;13.460;2023-12-14T07:21:09;3.50;99.90
32502;DHT22;18952;52.516;13.460;2023-12-14T07:23:37;3.50;99.90
32502;DHT22;18952;52.516;13.460;2023-12-14T07:26:04;3.60;99.90
32502;DHT22;18952;52.516;13.460;2023-12-14T07:28:33;3.60;99.90
32502;DHT22;18952;52.516;13.460;2023-12-14T07:31:00;3.50;99.90
32502;DHT22;18952;52.516;13.460;2023-12-14T07:33:27;3.50;99.90
32502;DHT22;18952;52.516;13.460;2023-12-14T07:35:54;3.50;99.90
32502;DHT22;18952;52.516;13.460;2023-12-14T07:38:21;3.60;99.90
32502;DHT22;18952;52.516;13.460;2023-12-14T07:40:48;3.50;99.90
32502;DHT22;18952;52.516;13.460;2023-12-14T07:43:21;3.50;99.90
32502;DHT22;18952;52.516;13.460;2023-12-14T07:45:51;3.50;99.90
32502;DHT22;18952;52.516;13.460;2023-12-14T07:48:17;3.50;99.90
32502;DHT22;18952;52.516;13.460;2023-12-14T07:50:47;3.40;99.90
32502;DHT22;18952;52.516;13.460;2023-12-14T07:53:16;3.30;99.90
32502;DHT22;18952;52.516;13.460;2023-12-14T07:55:43;3.20;99.90
32502;DHT22;18952;52.516;13.460;2023-12-14T07:58:10;3.20;99.90
32502;DHT22;18952;52.516;13.460;2023-12-14T08:00:37;3.20;99.90
32502;DHT22;18952;52.516;13.460;2023-12-14T08:03:04;3.30;99.90
32502;DHT22;18952;52.516;13.460;2023-12-14T08:05:31;3.30;99.90
32502;DHT22;18952;52.516;13.460;2023-12-14T08:08:01;3.40;99.90
32502;DHT22;18952;52.516;13.460;2023-12-14T08:10:28;3.40;99.90
32502;DHT22;18952;52.516;13.460;2023-12-14T08:12:57;3.40;99.90
32502;DHT22;18952;52.516;13.460;2023-12-14T08:15:24;3.40;99.90
32502;DHT22;18952;52.516;13.460;2023-12-14T08:17:51;3.50;99.90
32502;DHT22;18952;52.516;13.460;2023-12-14T08:20:18;3.50;99.90
32502;DHT22;18952;52.516;13.460;2023-12-14T08:22:45;3.50;99.90
32502;DHT22;18952;52.516;13.460;2023-12-14T08:25:13;3.50;99.90
32502;DHT22;18952;52.516;13.460;2023-12-14T08:27:41;3.60;99.90
32502;DHT22;18952;52.516;13.460;2023-12-14T08:30:08;3.60;99.90
32502;DHT22;18952;52.516;13.460;2023-12-14T08:32:35;3.70;99.90
32502;DHT22;18952;52.516;13.460;2023-12-14T08:35:05;3.70;99.90
32502;DHT22;18952;52.516;13.460;2023-12-14T08:37:32;3.70;99.90
32502;DHT22;18952;52.516;13.460;2023-12-14T08:39:59;3.70;99.90
32502;DHT22;18952;52.516;13.460;2023-12-14T08:42:26;3.60;99.90
32502;DHT22;18952;52.516;13.460;2023-12-14T08:44:53;3.60;99.90
32502;DHT22;18952;52.516;13.460;2023-12-14T08:47:20;3.60;99.90
32502;DHT22;18952;52.516;13.460;2023-12-14T08:49:47;3.70;99.90
32502;DHT22;18952;52.516;13.460;2023-12-14T08:52:13;3.70;99.90
32502;DHT22;18952;52.516;13.460;2023-12-14T08:54:40;3.70;99.90
32502;DHT22;18952;52.516;13.460;2023-12-14T08:57:07;3.60;99.90
32502;DHT22;18952;52.516;13.460;2023-12-14T08:59:34;3.70;99.90
32502;DHT22;18952;52.516;13.460;2023-12-14T09:02:01;3.70;99.90
32502;DHT22;18952;52.516;13.460;2023-12-14T09:04:28;3.70;99.90
32502;DHT22;18952;52.516;13.460;2023-12-14T09:06:55;3.80;99.90
32502;DHT22;18952;52.516;13.460;2023-12-14T09:09:21;3.80;99.90
32502;DHT22;18952;52.516;13.460;2023-12-14T09:11:48;3.80;99.90
32502;DHT22;18952;52.516;13.460;2023-12-14T09:14:17;3.80;99.90
32502;DHT22;18952;52.516;13.460;2023-12-14T09:16:44;3.80;99.90
32502;DHT22;18952;52.516;13.460;2023-12-14T09:19:11;3.90;99.90
32502;DHT22;18952;52.516;13.460;2023-12-14T09:21:38;4.00;99.90
32502;DHT22;18952;52.516;13.460;2023-12-14T09:24:12;4.00;99.90
32502;DHT22;18952;52.516;13.460;2023-12-14T09:26:40;4.00;99.90
32502;DHT22;18952;52.516;13.460;2023-12-14T09:29:07;4.00;99.90
32502;DHT22;18952;52.516;13.460;2023-12-14T09:31:34;4.00;99.90
32502;DHT22;18952;52.516;13.460;2023-12-14T09:34:02;4.10;99.90
32502;DHT22;18952;52.516;13.460;2023-12-14T09:36:29;4.10;99.90
32502;DHT22;18952;52.516;13.460;2023-12-14T09:38:55;4.10;99.90
32502;DHT22;18952;52.516;13.460;2023-12-14T09:41:23;4.10;99.90
32502;DHT22;18952;52.516;13.460;2023-12-14T09:43:51;4.10;99.90
32502;DHT22;18952;52.516;13.460;2023-12-14T09:46:18;4.00;99.90
32502;DHT22;18952;52.516;13.460;2023-12-14T09:48:48;4.00;99.90
32502;DHT22;18952;52.516;13.460;2023-12-14T09:51:16;3.90;99.90
32502;DHT22;18952;52.516;13.460;2023-12-14T09:53:43;3.90;99.90
32502;DHT22;18952;52.516;13.460;2023-12-14T09:56:10;3.90;99.90
32502;DHT22;18952;52.516;13.460;2023-12-14T09:58:37;3.90;99.90
32502;DHT22;18952;52.516;13.460;2023-12-14T10:01:21;4.00;99.90
32502;DHT22;18952;52.516;13.460;2023-12-14T10:03:48;3.90;99.90
32502;DHT22;18952;52.516;13.460;2023-12-14T10:06:15;4.00;99.90
32502;DHT22;18952;52.516;13.460;2023-12-14T10:08:54;4.00;99.90
32502;DHT22;18952;52.516;13.460;2023-12-14T10:11:21;4.00;99.90
32502;DHT22;18952;52.516;13.460;2023-12-14T10:13:47;4.10;99.90
32502;DHT22;18952;52.516;13.460;2023-12-14T10:16:27;4.10;99.90
32502;DHT22;18952;52.516;13.460;2023-12-14T10:18:55;4.10;99.90
32502;DHT22;18952;52.516;13.460;2023-12-14T10:21:30;4.10;99.90
32502;DHT22;18952;52.516;13.460;2023-12-14T10:23:57;4.10;99.90
32502;DHT22;18952;52.516;13.460;2023-12-14T10:26:25;4.10;99.90
32502;DHT22;18952;52.516;13.460;2023-12-14T10:28:52;4.20;99.90
32502;DHT22;18952;52.516;13.460;2023-12-14T10:31:19;4.20;99.90
32502;DHT22;18952;52.516;13.460;2023-12-14T10:33:47;4.30;99.90
32502;DHT22;18952;52.516;13.460;2023-12-14T10:36:16;4.30;99.90
32502;DHT22;18952;52.516;13.460;2023-12-14T10:38:46;4.30;99.90
32502;DHT22;18952;52.516;13.460;2023-12-14T10:41:14;4.30;99.90
32502;DHT22;18952;52.516;13.460;2023-12-14T10:43:44;4.30;99.90
32502;DHT22;18952;52.516;13.460;2023-12-14T10:46:17;4.30;99.90
32502;DHT22;18952;52.516;13.460;2023-12-14T10:48:47;4.30;99.90
32502;DHT22;18952;52.516;13.460;2023-12-14T10:51:15;4.30;99.90
32502;DHT22;18952;52.516;13.460;2023-12-14T10:53:45;4.30;99.90
32502;DHT22;18952;52.516;13.460;2023-12-14T10:56:12;4.30;99.90
32502;DHT22;18952;52.516;13.460;2023-12-14T10:58:52;4.30;99.90
32502;DHT22;18952;52.516;13.460;2023-12-14T11:01:20;4.40;99.90
32502;DHT22;18952;52.516;13.460;2023-12-14T11:03:48;4.30;99.90
32502;DHT22;18952;52.516;13.460;2023-12-14T11:06:30;4.30;99.90
32502;DHT22;18952;52.516;13.460;2023-12-14T11:09:03;4.30;99.90
32502;DHT22;18952;52.516;13.460;2023-12-14T11:14:08;4.20;99.90
32502;DHT22;18952;52.516;13.460;2023-12-14T11:16:38;4.20;99.90
32502;DHT22;18952;52.516;13.460;2023-12-14T11:24:31;4.30;99.90
32502;DHT22;18952;52.516;13.460;2023-12-14T11:26:57;4.20;99.90
32502;DHT22;18952;52.516;13.460;2023-12-14T11:29:25;4.20;99.90
32502;DHT22;18952;52.516;13.460;2023-12-14T11:31:53;4.30;99.90
32502;DHT22;18952;52.516;13.460;2023-12-14T11:34:20;4.30;99.90
32502;DHT22;18952;52.516;13.460;2023-12-14T11:36:50;4.30;99.90
32502;DHT22;18952;52.516;13.460;2023-12-14T11:39:17;4.30;99.90
32502;DHT22;18952;52.516;13.460;2023-12-14T11:41:59;4.40;99.90
32502;DHT22;18952;52.516;13.460;2023-12-14T11:44:25;4.40;99.90
32502;DHT22;18952;52.516;13.460;2023-12-14T11:46:53;4.50;99.90
32502;DHT22;18952;52.516;13.460;2023-12-14T11:49:20;4.50;99.90
32502;DHT22;18952;52.516;13.460;2023-12-14T11:51:47;4.50;99.90
32502;DHT22;18952;52.516;13.460;2023-12-14T11:54:14;4.50;99.90
32502;DHT22;18952;52.516;13.460;2023-12-14T11:56:46;4.50;99.90
32502;DHT22;18952;52.516;13.460;2023-12-14T11:59:17;4.50;99.90
32502;DHT22;18952;52.516;13.460;2023-12-14T12:02:01;4.60;99.90
32502;DHT22;18952;52.516;13.460;2023-12-14T12:04:28;4.60;99.90
32502;DHT22;18952;52.516;13.460;2023-12-14T12:07:02;4.50;99.90
32502;DHT22;18952;52.516;13.460;2023-12-14T12:09:45;4.40;99.90
32502;DHT22;18952;52.516;13.460;2023-12-14T12:12:13;4.30;99.90
32502;DHT22;18952;52.516;13.460;2023-12-14T12:14:40;4.10;99.90
32502;DHT22;18952;52.516;13.460;2023-12-14T12:17:07;3.90;99.90
32502;DHT22;18952;52.516;13.460;2023-12-14T12:19:35;3.80;99.90
32502;DHT22;18952;52.516;13.460;2023-12-14T12:22:03;3.90;99.90
32502;DHT22;18952;52.516;13.460;2023-12-14T12:24:30;4.00;99.90
32502;DHT22;18952;52.516;13.460;2023-12-14T12:27:00;3.90;99.90
32502;DHT22;18952;52.516;13.460;2023-12-14T12:29:27;3.90;99.90
32502;DHT22;18952;52.516;13.460;2023-12-14T12:31:54;3.80;99.90
32502;DHT22;18952;52.516;13.460;2023-12-14T12:34:21;3.70;99.90
32502;DHT22;18952;52.516;13.460;2023-12-14T12:36:48;3.70;99.90
32502;DHT22;18952;52.516;13.460;2023-12-14T12:39:15;3.70;99.90
32502;DHT22;18952;52.516;13.460;2023-12-14T12:41:42;3.70;99.90
32502;DHT22;18952;52.516;13.460;2023-12-14T12:44:09;3.70;99.90
32502;DHT22;18952;52.516;13.460;2023-12-14T12:46:36;3.60;99.90
32502;DHT22;18952;52.516;13.460;2023-12-14T12:49:04;3.60;99.90
32502;DHT22;18952;52.516;13.460;2023-12-14T12:51:31;3.40;99.90
32502;DHT22;18952;52.516;13.460;2023-12-14T12:53:59;3.30;99.90
32502;DHT22;18952;52.516;13.460;2023-12-14T12:56:38;3.30;99.90
32502;DHT22;18952;52.516;13.460;2023-12-14T12:59:05;3.20;99.90
32502;DHT22;18952;52.516;13.460;2023-12-14T13:01:36;3.30;99.90
32502;DHT22;18952;52.516;13.460;2023-12-14T13:04:02;3.30;99.90
32502;DHT22;18952;52.516;13.460;2023-12-14T13:06:32;3.40;99.90
32502;DHT22;18952;52.516;13.460;2023-12-14T13:08:59;3.30;99.90
32502;DHT22;18952;52.516;13.460;2023-12-14T13:11:25;3.40;99.90
32502;DHT22;18952;52.516;13.460;2023-12-14T13:13:53;3.50;99.90
32502;DHT22;18952;52.516;13.460;2023-12-14T13:16:20;3.60;99.90
32502;DHT22;18952;52.516;13.460;2023-12-14T13:18:47;3.60;99.90
32502;DHT22;18952;52.516;13.460;2023-12-14T13:21:14;3.60;99.90
32502;DHT22;18952;52.516;13.460;2023-12-14T13:23:41;3.70;99.90
32502;DHT22;18952;52.516;13.460;2023-12-14T13:26:08;3.70;99.90
32502;DHT22;18952;52.516;13.460;2023-12-14T13:28:35;3.70;99.90
32502;DHT22;18952;52.516;13.460;2023-12-14T13:31:02;3.80;99.90
32502;DHT22;18952;52.516;13.460;2023-12-14T13:33:29;3.80;99.90
32502;DHT22;18952;52.516;13.460;2023-12-14T13:35:56;3.90;99.90
32502;DHT22;18952;52.516;13.460;2023-12-14T13:38:23;4.00;99.90
32502;DHT22;18952;52.516;13.460;2023-12-14T13:40:50;4.00;99.90
32502;DHT22;18952;52.516;13.460;2023-12-14T13:43:17;4.00;99.90
32502;DHT22;18952;52.516;13.460;2023-12-14T13:45:44;4.00;99.90
32502;DHT22;18952;52.516;13.460;2023-12-14T13:48:14;3.90;99.90
32502;DHT22;18952;52.516;13.460;2023-12-14T13:50:44;3.80;99.90
32502;DHT22;18952;52.516;13.460;2023-12-14T13:53:11;3.80;99.90
32502;DHT22;18952;52.516;13.460;2023-12-14T13:55:40;3.60;99.90
32502;DHT22;18952;52.516;13.460;2023-12-14T13:58:13;3.50;99.90
32502;DHT22;18952;52.516;13.460;2023-12-14T14:00:40;3.50;99.90
32502;DHT22;18952;52.516;13.460;2023-12-14T14:03:07;3.50;99.90
32502;DHT22;18952;52.516;13.460;2023-12-14T14:05:36;3.40;99.90
32502;DHT22;18952;52.516;13.460;2023-12-14T14:08:03;3.30;99.90
32502;DHT22;18952;52.516;13.460;2023-12-14T14:10:34;3.20;99.90
32502;DHT22;18952;52.516;13.460;2023-12-14T14:13:01;3.20;99.90
32502;DHT22;18952;52.516;13.460;2023-12-14T14:15:28;3.30;99.90
32502;DHT22;18952;52.516;13.460;2023-12-14T14:17:55;3.30;99.90
32502;DHT22;18952;52.516;13.460;2023-12-14T14:20:23;3.40;99.90
32502;DHT22;18952;52.516;13.460;2023-12-14T14:22:50;3.50;99.90
32502;DHT22;18952;52.516;13.460;2023-12-14T14:25:17;3.60;99.90
32502;DHT22;18952;52.516;13.460;2023-12-14T14:27:44;3.60;99.90
32502;DHT22;18952;52.516;13.460;2023-12-14T14:30:11;3.70;99.90
32502;DHT22;18952;52.516;13.460;2023-12-14T14:32:38;3.70;99.90
32502;DHT22;18952;52.516;13.460;2023-12-14T14:35:09;3.60;99.90
32502;DHT22;18952;52.516;13.460;2023-12-14T14:37:39;3.60;99.90
32502;DHT22;18952;52.516;13.460;2023-12-14T14:40:13;3.60;99.90
32502;DHT22;18952;52.516;13.460;2023-12-14T14:42:42;3.60;99.90
32502;DHT22;18952;52.516;13.460;2023-12-14T14:45:09;3.50;99.90
32502;DHT22;18952;52.516;13.460;2023-12-14T14:47:37;3.60;99.90
32502;DHT22;18952;52.516;13.460;2023-12-14T14:50:05;3.70;99.90
32502;DHT22;18952;52.516;13.460;2023-12-14T14:52:33;3.70;99.90
32502;DHT22;18952;52.516;13.460;2023-12-14T14:55:01;3.80;99.90
32502;DHT22;18952;52.516;13.460;2023-12-14T14:57:28;3.80;99.90
32502;DHT22;18952;52.516;13.460;2023-12-14T14:59:54;3.80;99.90
32502;DHT22;18952;52.516;13.460;2023-12-14T15:02:21;3.80;99.90
32502;DHT22;18952;52.516;13.460;2023-12-14T15:04:48;3.90;99.90
32502;DHT22;18952;52.516;13.460;2023-12-14T15:07:15;3.90;99.90
32502;DHT22;18952;52.516;13.460;2023-12-14T15:09:42;3.90;99.90
32502;DHT22;18952;52.516;13.460;2023-12-14T15:12:08;3.90;99.90
32502;DHT22;18952;52.516;13.460;2023-12-14T15:14:35;4.00;99.90
32502;DHT22;18952;52.516;13.460;2023-12-14T15:17:02;3.90;99.90
32502;DHT22;18952;52.516;13.460;2023-12-14T15:19:29;4.00;99.90
32502;DHT22;18952;52.516;13.460;2023-12-14T15:21:56;4.00;99.90
32502;DHT22;18952;52.516;13.460;2023-12-14T15:24:26;3.90;99.90
32502;DHT22;18952;52.516;13.460;2023-12-14T15:26:53;3.90;99.90
32502;DHT22;18952;52.516;13.460;2023-12-14T15:29:23;4.00;99.90
32502;DHT22;18952;52.516;13.460;2023-12-14T15:31:50;3.90;99.90
32502;DHT22;18952;52.516;13.460;2023-12-14T15:34:17;4.00;99.90
32502;DHT22;18952;52.516;13.460;2023-12-14T15:36:44;3.90;99.90
32502;DHT22;18952;52.516;13.460;2023-12-14T15:39:11;3.90;99.90
32502;DHT22;18952;52.516;13.460;2023-12-14T15:41:44;3.90;99.90